Nearby METAR (Airport) Reports

 

KPRN - Greenville, Alabama, USA
Distance from station: WNW 17mi, 28km
Updated: Fri, 19-Apr-2019 8:56am CDT
Light rain, Mist, Overcast
Light rain, Mist, Overcast
 Wind from W
Wind: W 18 mph , 30 km/h, Gust: 23 mph , 37 km/h
Temperature: 59°F , 15°C
Dew Point: 55°F , 13°C
Humidity: 88%
Barometer: 29.57 inHg , 1001.4 hPa
Summary: Light rain, Mist
Clouds: Overcast
Visibility: 2 miles , 3 km
Cloud details: Mostly cloudy 400 ft
Mostly cloudy 800 ft
Overcast 2300 ft
2019/04/19 13:56 KPRN 191356Z AUTO 28016G20KT 2SM -RA BR BKN004 BKN008 OVC023 15/13 A2957 RMK AO2 RAB34 SLP009 P0001 T01500128 $
KTOI - Troy, Alabama, USA
Distance from station: ENE 21mi, 34km
Updated: Fri, 19-Apr-2019 9:07am CDT
Mostly cloudy
Mostly cloudy
 
Temperature: 64°F , 18°C
Dew Point: 61°F , 16°C
Humidity: 88%
Barometer: 29.57 inHg , 1001.4 hPa
Clouds: Mostly cloudy
Visibility: 10 miles , 16 km
Cloud details: Mostly cloudy 1300 ft
Mostly cloudy 1700 ft
2019/04/19 14:07 KTOI 191407Z AUTO 10SM BKN013 BKN017 18/16 A2957 RMK AO2 T01780161
K79J - Andalusia/Opp Ar, Alabama, USA
Distance from station: S 29mi, 47km
Updated: Fri, 19-Apr-2019 9:08am CDT
Mostly cloudy
Mostly cloudy
 Wind from W
Wind: W 9 mph , 15 km/h
Temperature: 68°F , 20°C
Dew Point: 59°F , 15°C
Humidity: 73%
Barometer: 29.58 inHg , 1001.7 hPa
Clouds: Mostly cloudy
Visibility: 10 miles , 16 km
Cloud details: Partly cloudy 1400 ft
Mostly cloudy 2700 ft
2019/04/19 14:08 K79J 191408Z AUTO 27008KT 10SM SCT014 BKN027 20/15 A2958 RMK AO2 T02000150
 
KMGM - Montgomery, Alabama, USA
Distance from station: N 39mi, 63km
Updated: Fri, 19-Apr-2019 8:53am CDT
Overcast
Overcast
 Wind from W
Wind: W 15 mph , 24 km/h, Gust: 24 mph , 39 km/h
Temperature: 59°F , 15°C
Dew Point: 55°F , 13°C
Humidity: 88%
Barometer: 29.56 inHg , 1001 hPa
Clouds: Overcast
Visibility: 10 miles , 16 km
Cloud details: Partly cloudy 800 ft
Mostly cloudy 1200 ft
Overcast 2200 ft
2019/04/19 13:53 KMGM 191353Z 26013G21KT 10SM SCT008 BKN012 OVC022 15/13 A2956 RMK AO2 RAB29E44 SLP009 P0000 T01500133
KMXF - Maxwell Afb/Mgm, Alabama, USA
Distance from station: N 44mi, 70km
Updated: Fri, 19-Apr-2019 9:11am CDT
Overcast
Overcast
 Wind from W
Wind: W 8 mph , 13 km/h
Temperature: 59°F , 15°C
Dew Point: 55°F , 13°C
Humidity: 88%
Barometer: 29.55 inHg , 1000.7 hPa
Clouds: Overcast
Visibility: 10 miles , 16 km
Cloud details: Partly cloudy 900 ft
Overcast 1500 ft
2019/04/19 14:11 KMXF 191411Z AUTO 27007KT 10SM SCT009 OVC015 15/13 A2955 RMK AO2 CIG 009V015 SLP009 $
KLOR - Lowe Ahp/Ft. Ruc, Alabama, USA
Distance from station: SE 44mi, 71km
Updated: Fri, 19-Apr-2019 9:08am CDT
Overcast
Overcast
 Wind from W
Wind: W 9 mph , 15 km/h
Temperature: 64°F , 18°C
Dew Point: 63°F , 17°C
Humidity: 94%
Barometer: 29.58 inHg , 1001.7 hPa
Clouds: Overcast
Visibility: 10 miles , 16 km
Cloud details: Partly cloudy 900 ft
Partly cloudy 1500 ft
Mostly cloudy 2200 ft
Overcast 3000 ft
2019/04/19 14:08 KLOR 191408Z AUTO 26008KT 10SM SCT009 SCT015 BKN022 OVC030 18/17 A2958 RMK AO2 CIG 015V022 BKN V OVC SLP998
 
KGZH - Evergreen, Alabama, USA
Distance from station: WSW 46mi, 75km
Updated: Fri, 19-Apr-2019 9:04am CDT
Light rain, Overcast
Light rain, Overcast
 Wind from W
Wind: W 8 mph , 13 km/h, Gust: 20 mph , 31 km/h
Temperature: 57°F , 14°C
Dew Point: 54°F , 12°C
Humidity: 88%
Barometer: 29.63 inHg , 1003.4 hPa
Summary: Light rain
Clouds: Overcast
Visibility: 3 miles , 5 km
Cloud details: Few Clouds 800 ft
Partly cloudy 1200 ft
Overcast 2300 ft
2019/04/19 14:04 KGZH 191404Z AUTO 28007G17KT 220V340 3SM -RA FEW008 SCT012 OVC023 14/12 A2963 RMK AO2 P0000 T01440117
K0J4 - Florala Muni, Alabama, USA
Distance from station: S 47mi, 76km
Updated: Fri, 19-Apr-2019 8:57am CDT
Mostly cloudy
Mostly cloudy
 Wind from WSW
Wind: WSW 9 mph , 15 km/h
Temperature: 66°F , 19°C
Dew Point: 59°F , 15°C
Humidity: 78%
Barometer: 29.61 inHg , 1002.7 hPa
Clouds: Mostly cloudy
Visibility: 10 miles , 16 km
Cloud details: Mostly cloudy 1500 ft
2019/04/19 13:57 K0J4 191357Z AUTO 25008KT 230V290 10SM BKN015 19/15 A2961 RMK AO2 SLP024 T01940150
KOZR - Ozark/Cairns Aaf, Alabama, USA
Distance from station: SE 49mi, 78km
Updated: Fri, 19-Apr-2019 9:06am CDT
Mostly cloudy
Mostly cloudy
 Wind from SW
Wind: SW 13 mph , 20 km/h
Temperature: 64°F , 18°C
Dew Point: 63°F , 17°C
Humidity: 94%
Barometer: 29.58 inHg , 1001.7 hPa
Clouds: Mostly cloudy
Visibility: 10 miles , 16 km
Cloud details: Few Clouds 900 ft
Partly cloudy 2100 ft
Mostly cloudy 2700 ft
2019/04/19 14:06 KOZR 191406Z AUTO 23011KT 10SM FEW009 SCT021 BKN027 18/17 A2958 RMK AO2 BKN V SCT SLP017
 
KHEY - Ft Rucker/Hanche, Alabama, USA
Distance from station: ESE 49mi, 79km
Updated: Fri, 19-Apr-2019 9:08am CDT
Overcast
Overcast
 Wind from W
Wind: W 9 mph , 15 km/h
Temperature: 64°F , 18°C
Dew Point: 64°F , 18°C
Humidity: 100%
Barometer: 29.57 inHg , 1001.4 hPa
Clouds: Overcast
Visibility: 10 miles , 16 km
Cloud details: Mostly cloudy 900 ft
Overcast 1300 ft
2019/04/19 14:08 KHEY 191408Z AUTO 28008KT 10SM BKN009 OVC013 18/18 A2957 RMK AO2 CIG 009V012 SLP013
KDHN - Dothan, Alabama, USA
Distance from station: ESE 61mi, 97km
Updated: Fri, 19-Apr-2019 8:53am CDT
Overcast
Overcast
 Wind from W
Wind: W 15 mph , 24 km/h, Gust: 23 mph , 37 km/h
Temperature: 66°F , 19°C
Dew Point: 61°F , 16°C
Humidity: 83%
Barometer: 29.60 inHg , 1002.4 hPa
Clouds: Overcast
Visibility: 10 miles , 16 km
Cloud details: Mostly cloudy 1300 ft
Mostly cloudy 3100 ft
Overcast 4000 ft
2019/04/19 13:53 KDHN 191353Z 26013G20KT 10SM BKN013 BKN031 OVC040 19/16 A2960 RMK AO2 WSHFT 1310 RAB13E34 SLP018 P0001 T01890161
KCEW - Crestview, Florida, USA
Distance from station: S 66mi, 107km
Updated: Fri, 19-Apr-2019 8:53am CDT
Mostly cloudy
Mostly cloudy
 Wind from WSW
Wind: WSW 6 mph , 9 km/h
Temperature: 66°F , 19°C
Dew Point: 59°F , 15°C
Humidity: 78%
Barometer: 29.62 inHg , 1003 hPa
Clouds: Mostly cloudy
Visibility: 10 miles , 16 km
Cloud details: Mostly cloudy 5000 ft
2019/04/19 13:53 KCEW 191353Z AUTO 25005KT 10SM BKN050 19/15 A2962 RMK AO2 SLP026 T01890150
 
KEUF - Eufaula, Alabama, USA
Distance from station: ENE 73mi, 118km
Updated: Mon, 04-Mar-2019 12:58pm CST
NOT Current

 
Barometer: 30.10 inHg , 1019.3 hPa
2019/03/04 18:58 KEUF 041858Z AUTO A3010 RMK AO2 RAEMM TSB02B32 SLPNO PWINO FZRANO TSNO $
KJKA - Gulf Shores, Alabama, USA
Distance from station: SSW 132mi, 212km
Updated: Fri, 19-Apr-2019 8:55am CDT
Overcast
Overcast
 Wind from W
Wind: W 17 mph , 28 km/h, Gust: 30 mph , 48 km/h
Temperature: 59°F , 15°C
Dew Point: 55°F , 13°C
Humidity: 88%
Barometer: 29.68 inHg , 1005.1 hPa
Clouds: Overcast
Visibility: 10 miles , 16 km
Cloud details: Overcast 1600 ft
2019/04/19 13:55 KJKA 191355Z AUTO 28015G26KT 10SM OVC016 15/13 A2968 RMK AO2 T01500125
KLSF - Ft Benning/Colum, Georgia, USA
Distance from station: SNE 89mi, 143km
Updated: Fri, 19-Apr-2019 8:56am CDT
Overcast
Overcast
 Wind from W
Wind: W 9 mph , 15 km/h
Temperature: 64°F , 18°C
Dew Point: 64°F , 18°C
Humidity: 100%
Barometer: 29.53 inHg , 1000 hPa
Clouds: Overcast
Visibility: 10 miles , 16 km
Cloud details: Few Clouds 700 ft
Few Clouds 1100 ft
Partly cloudy 2600 ft
Overcast 3700 ft
2019/04/19 13:56 KLSF 191356Z AUTO 27008KT 10SM FEW007 FEW011 SCT026 OVC037 18/18 A2953 RMK AO2 RAE22DZB22E25RAB34E52 SLP003 P0002 T01800180 CHINO RWY33 $
 
KMOB - Mobile/Bates, Alabama, USA
Distance from station: SW 125mi, 202km
Updated: Fri, 19-Apr-2019 8:56am CDT
Mist, Overcast
Mist, Overcast
 Wind from W
Wind: W 12 mph , 19 km/h, Gust: 18 mph , 30 km/h
Temperature: 54°F , 12°C
Dew Point: 52°F , 11°C
Humidity: 94%
Barometer: 29.72 inHg , 1006.4 hPa
Summary: Mist
Clouds: Overcast
Visibility: 4 miles , 6 km
Cloud details: Overcast 1200 ft
2019/04/19 13:56 KMOB 191356Z 28010G16KT 4SM BR OVC012 12/11 A2972 RMK AO2 RAB05E23 SLP062 P0000 T01220106
KNMM - Meridian Nas, Mississippi, USA
Distance from station: WNW 151mi, 243km
Updated: Fri, 19-Apr-2019 8:56am CDT
Overcast
Overcast
 Wind from NW
Wind: NW 18 mph , 30 km/h, Gust: 29 mph , 46 km/h
Temperature: 54°F , 12°C
Dew Point: 48°F , 9°C
Humidity: 82%
Barometer: 29.68 inHg , 1005.1 hPa
Clouds: Overcast
Visibility: 9 miles , 14 km
Cloud details: Partly cloudy 1300 ft
Mostly cloudy 2200 ft
Overcast 3700 ft
2019/04/19 13:56 KNMM 191356Z 31016G25KT 9SM SCT013 BKN022 OVC037 12/09 A2968 RMK AO2 PK WND 29028/1339 CIG 016 SOUTH SLP061 T01170089
KQHY - Hurlbert (Ft Walton Bch), Florida, USA
Distance from station: S 94mi, 151km
Updated: Fri, 19-Apr-2019 8:56am CDT
Light rain, Showers, Mostly cloudy
Light rain, Showers, Mostly cloudy
 Wind from W
Wind: W 5 mph , 7 km/h
Temperature: 66°F , 19°C
Dew Point: 61°F , 16°C
Humidity: 83%
Barometer: 29.64 inHg , 1003.7 hPa
Summary: Light rain, Showers
Clouds: Mostly cloudy
Visibility: 10 miles , 16 km
Cloud details: Few Clouds 1800 ft
Mostly cloudy 3200 ft
2019/04/19 13:56 KQHY 191356Z AUTO 27004KT 10SM -SHRA FEW018 BKN032 19/16 A2964 RMK AO2 RAB46E48DZB48E50SHRAB50 SLP043 T01870163 $
 
KTCL - Tuscaloosa, Alabama, USA
Distance from station: NNW 129mi, 207km
Updated: Fri, 19-Apr-2019 8:53am CDT
Overcast
Overcast
 Wind from WNW
Wind: WNW 12 mph , 19 km/h, Gust: 21 mph , 33 km/h
Temperature: 54°F , 12°C
Dew Point: 48°F , 9°C
Humidity: 82%
Barometer: 29.62 inHg , 1003 hPa
Clouds: Overcast
Visibility: 10 miles , 16 km
Cloud details: Mostly cloudy 1700 ft
Mostly cloudy 2100 ft
Overcast 2600 ft
2019/04/19 13:53 KTCL 191353Z 30010G18KT 10SM BKN017 BKN021 OVC026 12/09 A2962 RMK AO2 SLP028 T01220089
KECP - Panama City, Florida, USA
Distance from station: SSE 122mi, 196km
Updated: Fri, 19-Apr-2019 8:53am CDT
Partly cloudy
Partly cloudy
 Wind from WSW
Wind: WSW 16 mph , 26 km/h
Temperature: 68°F , 20°C
Dew Point: 63°F , 17°C
Humidity: 83%
Barometer: 29.61 inHg , 1002.7 hPa
Clouds: Partly cloudy
Visibility: 10 miles , 16 km
Cloud details: Partly cloudy 2900 ft
2019/04/19 13:53 KECP 191353Z 24014KT 10SM SCT029 20/17 A2961 RMK AO2 SLP039 T02000167
KCBM - Columbus Afb, Mississippi, USA
Distance from station: NW 175mi, 282km
Updated: Fri, 19-Apr-2019 8:58am CDT
Light rain, Overcast
Light rain, Overcast
 Wind from WNW
Wind: WNW 18 mph , 30 km/h
Temperature: 50°F , 10°C
Wind Chill: 44°F , 7°C
Dew Point: 46°F , 8°C
Humidity: 88%
Barometer: 29.65 inHg , 1004.1 hPa
Summary: Light rain
Clouds: Overcast
Visibility: 10 miles , 16 km
Cloud details: Overcast 1200 ft
2019/04/19 13:58 KCBM 191358Z 30016KT 10SM -RA OVC012 10/08 A2965 RMK AO2A RAB58 SLP043 $
 
KBHM - Birmingham, Alabama, USA
Distance from station: N 132mi, 212km
Updated: Fri, 19-Apr-2019 8:53am CDT
Mist, Overcast
Mist, Overcast
 Wind from W
Wind: W 14 mph , 22 km/h
Temperature: 55°F , 13°C
Dew Point: 54°F , 12°C
Humidity: 94%
Barometer: 29.56 inHg , 1001 hPa
Summary: Mist
Clouds: Overcast
Visibility: 6 miles , 10 km
Cloud details: Mostly cloudy 600 ft
Overcast 1200 ft
2019/04/19 13:53 KBHM 191353Z 27012KT 6SM BR BKN006 OVC012 13/12 A2956 RMK AO2 RAE00B25E38 SLP007 P0000 T01280117
KAAF - Apalachicola, Florida, USA
Distance from station: SSE 156mi, 250km
Updated: Fri, 19-Apr-2019 8:53am CDT
Mostly cloudy
Mostly cloudy
 Wind from W
Wind: W 16 mph , 26 km/h
Temperature: 70°F , 21°C
Dew Point: 64°F , 18°C
Humidity: 83%
Barometer: 29.67 inHg , 1004.7 hPa
Clouds: Mostly cloudy
Visibility: 10 miles , 16 km
Cloud details: Mostly cloudy 1700 ft
Mostly cloudy 2700 ft
Mostly cloudy 4100 ft
2019/04/19 13:53 KAAF 191353Z AUTO 26014KT 10SM BKN017 BKN027 BKN041 21/18 A2967 RMK AO2 PK WND 25030/1329 SLP048 T02060178
KATL - Atlanta, Georgia, USA
Distance from station: NE 177mi, 287km
Updated: Fri, 19-Apr-2019 9:10am CDT
Light rain, Mist, Overcast
Light rain, Mist, Overcast
 Wind from SE
Wind: SE 8 mph , 13 km/h
Temperature: 64°F , 18°C
Dew Point: 63°F , 17°C
Humidity: 94%
Barometer: 29.51 inHg , 999.3 hPa
Summary: Light rain, Mist
Clouds: Overcast
Visibility: 1 mile , 2 km
Cloud details: Few Clouds 600 ft
Partly cloudy 2000 ft
Overcast 4000 ft
2019/04/19 14:10 KATL 191410Z 14007KT 1SM R09R/P6000FT -RA BR FEW006 SCT020 OVC040 18/17 A2951 RMK AO2 SFC VIS 3 LTG DSNT SE RAE04B07 P0002 T01830167
 
KGPT - Gulfport, Mississippi, USA
Distance from station: SW 192mi, 309km
Updated: Fri, 19-Apr-2019 8:53am CDT
Overcast
Overcast
 Wind from WNW
Wind: WNW 16 mph , 26 km/h, Gust: 25 mph , 41 km/h
Temperature: 55°F , 13°C
Dew Point: 48°F , 9°C
Humidity: 77%
Barometer: 29.75 inHg , 1007.5 hPa
Clouds: Overcast
Visibility: 10 miles , 16 km
Cloud details: Overcast 2700 ft
2019/04/19 13:53 KGPT 191353Z 30014G22KT 10SM OVC027 13/09 A2975 RMK AO2 PK WND 30026/1323 SLP075 T01330089
KNEW - New Orleans/Lake, Louisiana, USA
Distance from station: SW 255mi, 410km
Updated: Fri, 19-Apr-2019 8:53am CDT
Mostly cloudy
Mostly cloudy
 Wind from WNW
Wind: WNW 26 mph , 43 km/h
Temperature: 59°F , 15°C
Dew Point: 50°F , 10°C
Humidity: 72%
Barometer: 29.84 inHg , 1010.5 hPa
Clouds: Mostly cloudy
Visibility: 10 miles , 16 km
Cloud details: Few Clouds 2000 ft
Partly cloudy 2600 ft
Mostly cloudy 3200 ft
2019/04/19 13:53 KNEW 191353Z 30023KT 10SM FEW020 SCT026 BKN032 15/10 A2984 RMK AO2 PK WND 31032/1300 SLP097 T01500100
KP92 - Salt Point, Louisiana, USA
Distance from station: SW 347mi, 559km
Updated: Fri, 19-Apr-2019 8:53am CDT

 Wind from varies
Wind: varies 6 mph , 9 km/h
Barometer: 29.89 inHg , 1012.2 hPa
2019/04/19 13:53 KP92 191353Z AUTO VRB05KT A2989 RMK AO1 SLP123 $